Time;durP1;ratioP1;P1;durP2;ratioP2;P2;SDS_P1;SDS_P2;PMS_P1;PMS_P2;Temp;Humidity;BMP_temperature;BMP_pressure;BME280_temperature;BME280_humidity;BME280_pressure;Samples;Min_cycle;Max_cycle;Signal;HPM_P1;HPM_P2
2020/12/11 00:02:08;;;;;;;;;;;;;;;21.83;27.47;97070.44;5006790;28;759;-80
2020/12/11 00:04:33;;;;;;;;;;;;;;;21.40;28.23;97076.28;5022570;28;1072;-80
2020/12/11 00:06:59;;;;;;;;;;;;;;;21.44;28.23;97082.59;4993517;28;1903;-80
2020/12/11 00:09:25;;;;;;;;;;;;;;;21.84;28.41;97077.69;4986685;28;846;-80
2020/12/11 00:11:50;;;;;;;;;;;;;;;22.40;27.29;97084.22;4971240;28;636;-79
2020/12/11 00:14:16;;;;;;;;;;;;;;;22.56;26.78;97081.06;4986464;28;687;-80
2020/12/11 00:16:42;;;;;;;;;;;;;;;22.65;26.73;97088.78;4987996;28;1495;-80
2020/12/11 00:19:07;;;;;;;;;;;;;;;22.76;26.23;97089.06;4985778;28;1680;-80
2020/12/11 00:21:39;;;;;;;;;;;;;;;22.01;27.55;97091.53;5003171;28;892;-80
2020/12/11 00:24:05;;;;;;;;;;;;;;;21.45;28.01;97081.34;4986178;28;961;-79
2020/12/11 00:26:30;;;;;;;;;;;;;;;21.57;28.11;97074.78;4986667;28;1899;-78
2020/12/11 00:28:55;;;;;;;;;;;;;;;21.57;28.72;97071.94;5003253;28;1542;-79
2020/12/11 00:31:24;;;;;;;;;;;;;;;22.18;27.37;97078.72;4985974;28;1148;-80
2020/12/11 00:33:50;;;;;;;;;;;;;;;22.46;27.00;97067.38;4984672;28;870;-81
2020/12/11 00:36:15;;;;;;;;;;;;;;;22.70;26.81;97065.44;4987227;28;1601;-80
2020/12/11 00:38:41;;;;;;;;;;;;;;;22.33;26.92;97065.50;4984666;28;884;-79
2020/12/11 00:41:06;;;;;;;;;;;;;;;21.41;28.34;97060.91;4970127;28;874;-80
2020/12/11 00:43:32;;;;;;;;;;;;;;;21.60;28.02;97062.50;4984306;28;807;-80
2020/12/11 00:45:57;;;;;;;;;;;;;;;21.55;28.71;97060.28;4986059;28;1918;-80
2020/12/11 00:48:22;;;;;;;;;;;;;;;22.22;27.61;97050.97;5002215;28;1533;-80
2020/12/11 00:50:48;;;;;;;;;;;;;;;22.43;26.87;97049.25;4985243;28;871;-80
2020/12/11 00:53:14;;;;;;;;;;;;;;;22.62;26.84;97055.69;4997845;28;1396;-80
2020/12/11 00:55:40;;;;;;;;;;;;;;;22.53;26.74;97047.19;4971632;28;1574;-79
2020/12/11 00:58:05;;;;;;;;;;;;;;;22.09;27.47;97047.50;5001378;28;655;-79
2020/12/11 01:00:30;;;;;;;;;;;;;;;21.55;27.91;97048.97;4984946;28;1408;-81
2020/12/11 01:02:56;;;;;;;;;;;;;;;21.51;28.03;97042.69;4985827;28;1523;-80
2020/12/11 01:05:21;;;;;;;;;;;;;;;21.98;27.80;97030.19;5000128;28;1902;-80
2020/12/11 01:07:47;;;;;;;;;;;;;;;22.22;27.38;97038.88;5021636;28;967;-80
2020/12/11 01:10:12;;;;;;;;;;;;;;;22.42;26.98;97029.88;5004078;28;914;-80
2020/12/11 01:12:38;;;;;;;;;;;;;;;22.80;26.48;97020.84;5010027;28;1577;-80
2020/12/11 01:15:03;;;;;;;;;;;;;;;22.14;27.23;97027.06;4984470;28;723;-80
2020/12/11 01:17:29;;;;;;;;;;;;;;;21.77;27.78;97027.03;4985304;28;981;-80
2020/12/11 01:19:54;;;;;;;;;;;;;;;21.56;27.75;97017.38;5000801;28;822;-79
2020/12/11 01:22:20;;;;;;;;;;;;;;;21.72;27.75;97030.47;4989801;28;1573;-80
2020/12/11 01:24:45;;;;;;;;;;;;;;;22.09;27.66;97019.97;5003462;28;1977;-80
2020/12/11 01:27:11;;;;;;;;;;;;;;;22.59;26.75;97022.63;4988307;28;1438;-80
2020/12/11 01:29:36;;;;;;;;;;;;;;;22.62;26.37;97016.78;4977501;28;781734;-80
2020/12/11 01:32:02;;;;;;;;;;;;;;;22.81;26.29;97017.53;5022532;28;809;-80
2020/12/11 01:34:27;;;;;;;;;;;;;;;22.99;26.19;97011.03;5002907;28;1583;-79
2020/12/11 01:36:53;;;;;;;;;;;;;;;22.16;27.13;97013.22;4991958;28;1578;-80
2020/12/11 01:39:18;;;;;;;;;;;;;;;21.79;27.41;97010.34;5002292;28;714;-80
2020/12/11 01:41:44;;;;;;;;;;;;;;;21.59;27.84;97010.78;4985459;28;881;-80
2020/12/11 01:44:12;;;;;;;;;;;;;;;21.76;27.40;97014.13;4994279;28;1554;-79
2020/12/11 01:46:38;;;;;;;;;;;;;;;21.83;28.41;96999.66;5005020;28;1903;-80
2020/12/11 01:49:04;;;;;;;;;;;;;;;22.31;27.08;96997.13;4989361;28;1011;-80
2020/12/11 01:51:29;;;;;;;;;;;;;;;22.59;26.74;96997.13;5008620;28;928;-80
2020/12/11 01:53:55;;;;;;;;;;;;;;;22.75;26.20;96995.97;5006429;28;1546;-80
2020/12/11 01:56:20;;;;;;;;;;;;;;;22.27;26.83;96996.50;5022256;28;1514;-79
2020/12/11 01:58:46;;;;;;;;;;;;;;;21.76;27.85;96985.81;5007884;28;635;-80
2020/12/11 02:01:14;;;;;;;;;;;;;;;21.24;28.59;96981.91;5008782;28;991;-80
2020/12/11 02:03:39;;;;;;;;;;;;;;;21.92;27.94;96972.59;5007489;28;833;-80
2020/12/11 02:06:05;;;;;;;;;;;;;;;22.38;27.15;96964.06;5023740;28;1950;-79
2020/12/11 02:08:30;;;;;;;;;;;;;;;22.71;26.53;96967.78;4971883;28;822;-80
2020/12/11 02:10:55;;;;;;;;;;;;;;;22.67;26.42;96961.47;5006509;28;722;-80
2020/12/11 02:13:21;;;;;;;;;;;;;;;22.24;26.89;96957.03;5004968;28;679;-80
2020/12/11 02:15:46;;;;;;;;;;;;;;;21.08;28.40;96965.19;5006675;28;1620;-80
2020/12/11 02:18:12;;;;;;;;;;;;;;;21.20;28.35;96983.31;5004502;28;909;-79
2020/12/11 02:20:37;;;;;;;;;;;;;;;21.58;28.21;96985.78;4988689;28;831;-80
2020/12/11 02:23:03;;;;;;;;;;;;;;;22.00;27.98;96971.00;4988199;28;842;-80
2020/12/11 02:25:28;;;;;;;;;;;;;;;22.28;27.08;96974.66;5005833;28;1890;-79
2020/12/11 02:27:53;;;;;;;;;;;;;;;22.38;27.10;96984.69;5024768;28;671;-80
2020/12/11 02:30:19;;;;;;;;;;;;;;;22.63;26.60;96972.19;5024611;28;1199;-79
2020/12/11 02:32:45;;;;;;;;;;;;;;;22.49;26.60;96961.53;5024676;28;833;-80
2020/12/11 02:35:11;;;;;;;;;;;;;;;21.78;27.59;96951.34;5024621;28;803;-80
2020/12/11 02:37:37;;;;;;;;;;;;;;;21.73;27.62;96961.25;5006039;28;1506;-80
2020/12/11 02:40:03;;;;;;;;;;;;;;;21.64;28.57;96961.25;4991103;28;1194;-80
2020/12/11 02:42:29;;;;;;;;;;;;;;;22.32;27.58;96967.53;5007533;28;917;-80
2020/12/11 02:44:54;;;;;;;;;;;;;;;22.56;26.80;96964.03;5023700;28;1915;-80
2020/12/11 02:47:20;;;;;;;;;;;;;;;22.77;26.51;96965.84;5005356;28;1491;-79
2020/12/11 02:49:45;;;;;;;;;;;;;;;22.22;27.22;96965.97;5007062;28;990;-79
2020/12/11 02:52:11;;;;;;;;;;;;;;;21.57;28.11;96961.56;5007970;28;686;-80
2020/12/11 02:54:36;;;;;;;;;;;;;;;21.77;27.69;96953.41;5024066;28;634;-79
2020/12/11 02:57:02;;;;;;;;;;;;;;;21.90;27.86;96969.44;5021552;28;1604;-80
2020/12/11 02:59:27;;;;;;;;;;;;;;;22.29;27.33;96977.00;5023633;28;909;-79
2020/12/11 03:01:52;;;;;;;;;;;;;;;22.68;26.67;96974.38;5007758;28;857;-80
2020/12/11 03:04:18;;;;;;;;;;;;;;;22.82;26.61;96972.94;5023896;28;1050;-80
2020/12/11 03:06:43;;;;;;;;;;;;;;;22.16;26.84;96972.75;4997925;28;1902;-80
2020/12/11 03:09:10;;;;;;;;;;;;;;;21.88;27.36;96969.13;5000494;28;1570;-80
2020/12/11 03:11:37;;;;;;;;;;;;;;;21.39;28.56;96964.34;5024001;28;587;-79
2020/12/11 03:14:02;;;;;;;;;;;;;;;22.04;27.90;96971.66;5023307;28;937;-79
2020/12/11 03:16:27;;;;;;;;;;;;;;;22.48;26.88;96974.13;5004530;28;1589;-80
2020/12/11 03:18:53;;;;;;;;;;;;;;;22.69;26.41;96975.97;4970921;28;904;-80
2020/12/11 03:21:18;;;;;;;;;;;;;;;22.81;26.22;96983.50;5004967;28;636;-80
2020/12/11 03:23:45;;;;;;;;;;;;;;;22.02;27.35;96979.81;4986599;28;874;-80
2020/12/11 03:26:10;;;;;;;;;;;;;;;21.44;28.18;96975.03;5004851;28;1890;-80
2020/12/11 03:28:35;;;;;;;;;;;;;;;21.64;27.70;96983.88;4971203;28;1589;-80
2020/12/11 03:31:01;;;;;;;;;;;;;;;22.01;27.77;96972.56;4987749;28;930;-80
2020/12/11 03:33:26;;;;;;;;;;;;;;;22.36;27.16;96968.16;4986301;28;922;-80
2020/12/11 03:35:53;;;;;;;;;;;;;;;22.61;26.69;96957.72;4988102;28;627;-79
2020/12/11 03:38:18;;;;;;;;;;;;;;;22.76;26.58;96960.66;4994535;28;1384;-80
2020/12/11 03:40:44;;;;;;;;;;;;;;;22.53;26.50;96962.94;5020272;28;1589;-79
2020/12/11 03:43:09;;;;;;;;;;;;;;;21.70;27.72;96962.19;5002853;28;934;-80
2020/12/11 03:45:35;;;;;;;;;;;;;;;21.62;27.75;96955.28;4971573;28;1965;-79
2020/12/11 03:48:00;;;;;;;;;;;;;;;21.19;28.45;96959.91;4987684;28;1525;-79
2020/12/11 03:50:26;;;;;;;;;;;;;;;21.55;28.55;96942.22;4986837;28;1415;-79
2020/12/11 03:52:51;;;;;;;;;;;;;;;22.12;27.32;96938.91;5021658;28;1637;-79
2020/12/11 03:55:17;;;;;;;;;;;;;;;22.47;27.02;96944.22;4989334;28;826;-79
2020/12/11 03:57:42;;;;;;;;;;;;;;;22.66;26.75;96937.22;5005103;28;1472;-79
2020/12/11 04:00:07;;;;;;;;;;;;;;;22.22;26.85;96936.84;5004836;28;915;-80
2020/12/11 04:02:34;;;;;;;;;;;;;;;21.43;27.99;96934.66;5023124;28;905;-79
2020/12/11 04:04:59;;;;;;;;;;;;;;;21.61;27.58;96935.94;5005282;28;1973;-79
2020/12/11 04:07:24;;;;;;;;;;;;;;;21.63;28.31;96931.38;5022089;28;1506;-79
2020/12/11 04:09:50;;;;;;;;;;;;;;;22.28;26.88;96924.44;5004486;28;1632;-80
2020/12/11 04:12:15;;;;;;;;;;;;;;;22.57;26.57;96928.75;5021762;28;936;-79
2020/12/11 04:14:41;;;;;;;;;;;;;;;22.67;26.39;96927.44;5022091;28;888;-79
2020/12/11 04:17:06;;;;;;;;;;;;;;;22.57;26.30;96928.75;5022638;28;1055;-77
2020/12/11 04:19:32;;;;;;;;;;;;;;;21.30;28.09;96917.81;5005122;28;651;-78
2020/12/11 04:21:57;;;;;;;;;;;;;;;21.47;28.03;96920.34;5005771;28;740;-79
2020/12/11 04:24:23;;;;;;;;;;;;;;;21.24;28.74;96936.66;5022086;28;638;-78
2020/12/11 04:26:49;;;;;;;;;;;;;;;22.17;27.18;96924.13;5005362;28;1907;-78
2020/12/11 04:29:14;;;;;;;;;;;;;;;22.34;26.97;96931.03;5021910;28;1098;-79
2020/12/11 04:31:40;;;;;;;;;;;;;;;22.53;26.54;96928.13;5022602;28;882;-79
2020/12/11 04:34:06;;;;;;;;;;;;;;;22.59;26.45;96946.09;5005113;28;683;-79
2020/12/11 04:36:31;;;;;;;;;;;;;;;21.95;26.86;96957.47;4989115;28;814;-79
2020/12/11 04:38:57;;;;;;;;;;;;;;;21.78;27.46;96959.84;5004692;28;812;-79
2020/12/11 04:41:22;;;;;;;;;;;;;;;21.43;27.97;96956.50;4988786;28;932;-79
2020/12/11 04:43:48;;;;;;;;;;;;;;;21.69;27.32;96949.28;5004208;28;962;-79
2020/12/11 04:46:13;;;;;;;;;;;;;;;21.98;27.60;96945.22;5005491;28;1902;-79
2020/12/11 04:48:39;;;;;;;;;;;;;;;22.40;26.57;96953.06;5004625;28;691;-79
2020/12/11 04:51:04;;;;;;;;;;;;;;;22.60;26.41;96961.81;5005720;28;663;-79
2020/12/11 04:53:31;;;;;;;;;;;;;;;22.62;26.28;96959.28;4988284;28;632;-80
2020/12/11 04:55:57;;;;;;;;;;;;;;;22.66;26.26;96954.25;5005687;28;608;-79
2020/12/11 04:58:22;;;;;;;;;;;;;;;21.78;27.35;96960.63;5003792;28;938;-79
2020/12/11 05:00:48;;;;;;;;;;;;;;;21.61;27.52;96956.53;5005579;28;883;-80
2020/12/11 05:03:13;;;;;;;;;;;;;;;21.49;27.76;96960.28;5004490;28;949;-79
2020/12/11 05:05:39;;;;;;;;;;;;;;;21.74;27.91;96960.00;5005191;28;1973;-78
2020/12/11 05:08:18;;;;;;;;;;;;;;;22.27;26.91;96956.84;5004551;28;886;-79
2020/12/11 05:10:43;;;;;;;;;;;;;;;22.55;26.15;96962.47;5004576;28;694;-79
2020/12/11 05:13:22;;;;;;;;;;;;;;;22.87;25.72;96970.22;5003933;28;900;-79
2020/12/11 05:16:05;;;;;;;;;;;;;;;22.69;25.83;96972.34;5004757;28;980;-79
2020/12/11 05:18:30;;;;;;;;;;;;;;;22.11;26.84;96977.00;4987862;28;868;-79
2020/12/11 05:20:56;;;;;;;;;;;;;;;21.54;27.46;96982.31;5005145;28;643;-80
2020/12/11 05:23:21;;;;;;;;;;;;;;;20.62;29.07;96984.78;5006197;28;1299;-79
2020/12/11 05:25:47;;;;;;;;;;;;;;;22.15;27.04;96994.63;5009209;28;1902;-80
2020/12/11 05:28:12;;;;;;;;;;;;;;;22.40;26.70;96987.06;5007805;28;994;-79
2020/12/11 05:30:38;;;;;;;;;;;;;;;22.61;26.27;96980.41;5008749;28;908;-79
2020/12/11 05:33:03;;;;;;;;;;;;;;;22.76;26.23;96992.66;5007893;28;976;-79
2020/12/11 05:35:29;;;;;;;;;;;;;;;22.20;26.70;96988.34;4992137;28;778;-79
2020/12/11 05:38:02;;;;;;;;;;;;;;;21.64;27.59;96983.88;5025547;28;647;-79
2020/12/11 05:40:34;;;;;;;;;;;;;;;21.67;27.41;96982.97;5008211;28;687;-79
2020/12/11 05:43:15;;;;;;;;;;;;;;;21.70;27.87;96976.34;5007877;28;886;-79
2020/12/11 05:45:46;;;;;;;;;;;;;;;22.36;26.79;96990.84;4992226;28;1975;-79
2020/12/11 05:48:12;;;;;;;;;;;;;;;22.75;26.24;96984.63;5024816;28;690;-80
2020/12/11 05:50:37;;;;;;;;;;;;;;;22.83;26.21;96983.78;5025867;28;666;-79
2020/12/11 05:53:03;;;;;;;;;;;;;;;22.29;26.41;96987.56;5007729;28;662;-79
2020/12/11 05:55:28;;;;;;;;;;;;;;;21.62;27.58;96982.81;5025235;28;642;-79
2020/12/11 05:57:57;;;;;;;;;;;;;;;20.73;28.59;96995.69;5007650;28;1038;-79
2020/12/11 06:00:23;;;;;;;;;;;;;;;21.43;28.19;96991.25;5024618;28;814;-79
2020/12/11 06:02:49;;;;;;;;;;;;;;;22.31;27.00;96991.47;5024596;28;925;-79
2020/12/11 06:05:16;;;;;;;;;;;;;;;22.58;26.23;96992.69;5007405;28;1899;-79
2020/12/11 06:07:42;;;;;;;;;;;;;;;22.68;26.25;96997.06;5025243;28;708;-79
2020/12/11 06:10:07;;;;;;;;;;;;;;;22.02;26.71;97002.47;5007229;28;927;-79
2020/12/11 06:12:33;;;;;;;;;;;;;;;21.53;27.35;97006.22;5007611;28;976;-78
2020/12/11 06:15:03;;;;;;;;;;;;;;;21.46;27.76;97004.47;5023499;28;906;-79
2020/12/11 06:17:47;;;;;;;;;;;;;;;21.77;27.78;97010.03;5007597;28;919;-78
2020/12/11 06:20:13;;;;;;;;;;;;;;;22.38;26.55;97010.19;5007179;28;692;-78
2020/12/11 06:22:44;;;;;;;;;;;;;;;22.76;26.06;97009.66;5009928;28;1116;-79
2020/12/11 06:25:28;;;;;;;;;;;;;;;22.72;26.20;97002.59;5000186;28;1927;-79
2020/12/11 06:27:54;;;;;;;;;;;;;;;21.97;26.76;97015.25;5016763;28;1298;-78
2020/12/11 06:30:24;;;;;;;;;;;;;;;21.68;27.48;97024.16;5031442;28;1219;-78
2020/12/11 06:32:49;;;;;;;;;;;;;;;21.20;27.92;97012.38;5007401;28;1190;-78
2020/12/11 06:35:15;;;;;;;;;;;;;;;21.80;27.73;97011.91;5031311;28;1096;-79
2020/12/11 06:37:41;;;;;;;;;;;;;;;22.12;27.18;97018.25;5034081;28;1230;-79
2020/12/11 06:40:07;;;;;;;;;;;;;;;22.40;26.41;97019.03;4998003;28;1232;-78
2020/12/11 06:42:35;;;;;;;;;;;;;;;22.61;26.24;97017.25;5030355;28;1297;-79
2020/12/11 06:45:19;;;;;;;;;;;;;;;22.29;26.48;97024.41;5033007;28;1898;-79
2020/12/11 06:47:51;;;;;;;;;;;;;;;21.21;27.83;97025.28;5031010;28;1171;-79
2020/12/11 06:50:20;;;;;;;;;;;;;;;21.46;27.74;97029.16;5033039;28;1170;-79
2020/12/11 06:52:45;;;;;;;;;;;;;;;21.54;27.49;97033.25;5030939;28;1206;-78
2020/12/11 06:55:11;;;;;;;;;;;;;;;22.14;27.33;97034.78;5032943;28;1303;-79
2020/12/11 06:57:37;;;;;;;;;;;;;;;22.57;26.48;97036.47;5027760;28;1179;-79
2020/12/11 07:00:22;;;;;;;;;;;;;;;22.77;25.88;97033.91;5030073;28;1167;-78
2020/12/11 07:02:47;;;;;;;;;;;;;;;22.72;25.80;97031.72;5033208;28;1258;-78
2020/12/11 07:05:13;;;;;;;;;;;;;;;22.21;26.75;97038.06;5042143;28;1949;-79
2020/12/11 07:07:38;;;;;;;;;;;;;;;21.81;26.97;97044.66;5043149;28;706;-79
2020/12/11 07:10:04;;;;;;;;;;;;;;;21.31;27.60;97043.09;5042822;28;627;-78
2020/12/11 07:12:32;;;;;;;;;;;;;;;21.95;27.67;97028.28;5040106;28;1446;-79
2020/12/11 07:14:58;;;;;;;;;;;;;;;22.42;26.54;97018.53;5014404;28;1266;-79
2020/12/11 07:17:27;;;;;;;;;;;;;;;22.59;26.09;97028.31;5033680;28;1270;-78
2020/12/11 07:19:52;;;;;;;;;;;;;;;22.76;26.23;97014.56;5033251;28;1175;-78
2020/12/11 07:22:21;;;;;;;;;;;;;;;21.88;27.07;97031.44;5034662;28;1194;-79
2020/12/11 07:24:47;;;;;;;;;;;;;;;21.51;27.49;97031.38;5031227;28;1210;-78
2020/12/11 07:27:13;;;;;;;;;;;;;;;21.45;27.75;97027.56;5014793;28;1910;-78
2020/12/11 07:29:47;;;;;;;;;;;;;;;21.50;28.03;97038.25;5029990;28;1195;-78
2020/12/11 07:32:16;;;;;;;;;;;;;;;21.90;27.69;97028.91;5030722;28;1128;-78
2020/12/11 07:34:41;;;;;;;;;;;;;;;22.41;26.54;97028.31;5032099;28;1298;-78
2020/12/11 07:37:06;;;;;;;;;;;;;;;22.62;26.08;97021.66;5039382;28;1344;-78
2020/12/11 07:39:32;;;;;;;;;;;;;;;22.41;26.54;97016.97;5041987;28;709;-78
2020/12/11 07:42:00;;;;;;;;;;;;;;;22.04;26.58;97014.13;5024935;28;957;-78
2020/12/11 07:44:33;;;;;;;;;;;;;;;21.57;27.39;97021.00;5024557;28;850;-78
2020/12/11 07:47:02;;;;;;;;;;;;;;;21.62;28.06;97017.56;5040775;28;1905;-78
2020/12/11 07:49:37;;;;;;;;;;;;;;;22.21;26.76;97004.06;5041620;28;658;-78
2020/12/11 07:52:03;;;;;;;;;;;;;;;22.56;26.49;97006.56;5025280;28;1476;-77
2020/12/11 07:54:35;;;;;;;;;;;;;;;22.65;26.30;96985.91;5040846;28;690;-78
2020/12/11 07:57:08;;;;;;;;;;;;;;;22.26;26.85;96994.94;5041781;28;870;-77
2020/12/11 07:59:33;;;;;;;;;;;;;;;21.77;27.49;96993.03;5041125;28;922;-77
2020/12/11 08:01:58;;;;;;;;;;;;;;;21.24;27.91;97004.53;5041205;28;696;-77
2020/12/11 08:04:24;;;;;;;;;;;;;;;21.08;29.05;96993.47;5040889;28;662;-78
2020/12/11 08:06:59;;;;;;;;;;;;;;;22.39;26.78;96996.84;5042167;28;1977;-77
2020/12/11 08:09:31;;;;;;;;;;;;;;;22.77;26.22;96993.44;5024208;28;611;-77
2020/12/11 08:12:16;;;;;;;;;;;;;;;22.62;26.30;97004.66;5040833;28;962;-78
2020/12/11 08:14:45;;;;;;;;;;;;;;;21.81;27.35;96993.69;5040350;28;1041;-78
2020/12/11 08:17:12;;;;;;;;;;;;;;;21.58;27.56;96997.09;5040862;28;935;-78
2020/12/11 08:19:37;;;;;;;;;;;;;;;21.46;27.75;96992.38;5041377;28;644;-78
2020/12/11 08:22:13;;;;;;;;;;;;;;;21.24;28.34;96996.06;5024708;28;1112;-78
2020/12/11 08:24:38;;;;;;;;;;;;;;;22.01;27.74;96995.25;5041218;28;651;-78
2020/12/11 08:27:04;;;;;;;;;;;;;;;22.42;26.86;97001.53;5040113;28;1902;-78
2020/12/11 08:29:29;;;;;;;;;;;;;;;22.75;26.38;97002.44;5040740;28;1248;-78
2020/12/11 08:31:55;;;;;;;;;;;;;;;22.83;26.20;97003.66;5041466;28;920;-78
2020/12/11 08:34:20;;;;;;;;;;;;;;;22.19;26.92;97011.50;5040276;28;711;-78
2020/12/11 08:36:46;;;;;;;;;;;;;;;21.84;27.38;97009.72;5024666;28;1151;-78
2020/12/11 08:39:30;;;;;;;;;;;;;;;21.70;27.69;97023.69;5040279;28;830;-78
2020/12/11 08:53:19;;;;;;;;;;;;;;;21.67;27.83;97016.94;5018370;28;1148;-78
2020/12/11 08:55:45;;;;;;;;;;;;;;;21.30;28.20;97016.84;5024016;28;876;-78
2020/12/11 08:58:10;;;;;;;;;;;;;;;21.87;27.89;97015.72;5040187;28;1002;-78
2020/12/11 09:00:35;;;;;;;;;;;;;;;22.31;27.15;97008.47;5040190;28;946;-78
2020/12/11 09:03:01;;;;;;;;;;;;;;;22.73;26.17;97002.09;5040740;28;965;-79
2020/12/11 09:05:27;;;;;;;;;;;;;;;22.77;26.43;97002.72;5040805;28;1959;-78
2020/12/11 09:07:53;;;;;;;;;;;;;;;22.77;26.23;97011.22;5041145;28;654;-78
2020/12/11 09:10:18;;;;;;;;;;;;;;;21.93;27.41;96999.66;5040215;28;980;-78
2020/12/11 09:12:46;;;;;;;;;;;;;;;21.62;27.70;97003.41;5040406;28;938;-78
2020/12/11 09:15:12;;;;;;;;;;;;;;;21.45;28.05;97013.41;5039931;28;846;-78
2020/12/11 09:17:37;;;;;;;;;;;;;;;21.42;28.24;97011.53;5040053;28;1111;-78
2020/12/11 09:20:03;;;;;;;;;;;;;;;21.94;27.94;97006.88;5040537;28;618;-78
2020/12/11 09:22:29;;;;;;;;;;;;;;;22.35;27.22;97009.09;5039645;28;842;-78
2020/12/11 09:24:54;;;;;;;;;;;;;;;22.58;26.62;97009.69;5023226;28;856;-78
2020/12/11 09:27:20;;;;;;;;;;;;;;;22.71;26.48;97007.47;5023543;28;1985;-78
2020/12/11 09:29:48;;;;;;;;;;;;;;;22.05;27.19;96995.88;5039977;28;992;-78
2020/12/11 09:32:24;;;;;;;;;;;;;;;21.25;28.59;97014.59;5040638;28;1012;-78
2020/12/11 09:34:50;;;;;;;;;;;;;;;21.50;28.09;97012.78;5039802;28;627;-78
2020/12/11 09:37:15;;;;;;;;;;;;;;;22.24;27.36;97005.97;5040115;28;626;-78
2020/12/11 09:39:40;;;;;;;;;;;;;;;22.45;26.83;97003.44;5022544;28;905;-77
2020/12/11 09:45:07;;;;;;;;;;;;;;;22.40;26.87;97010.53;5003035;28;1145;-79
2020/12/11 09:47:43;;;;;;;;;;;;;;;22.05;27.21;97001.53;5040882;28;614;-77
2020/12/11 09:55:15;;;;;;;;;;;;;;;22.05;27.56;97002.31;5039652;28;711;-78
2020/12/11 09:57:41;;;;;;;;;;;;;;;22.48;27.00;96999.63;5039651;28;843;-78
2020/12/11 10:00:07;;;;;;;;;;;;;;;22.50;26.81;96991.47;5022709;28;931;-78
2020/12/11 10:05:04;;;;;;;;;;;;;;;21.81;27.72;96990.84;5039530;28;1973;-78
2020/12/11 10:07:29;;;;;;;;;;;;;;;21.84;27.48;96998.38;5040826;28;702;-78
2020/12/11 10:09:55;;;;;;;;;;;;;;;21.44;28.17;97003.34;5023867;28;743;-78
2020/12/11 10:12:23;;;;;;;;;;;;;;;22.07;27.86;96991.31;5044093;28;912;-78
2020/12/11 10:14:54;;;;;;;;;;;;;;;22.38;27.03;96995.25;5042870;28;928;-79
2020/12/11 10:17:20;;;;;;;;;;;;;;;22.75;26.60;96991.09;5044173;28;671;-78
2020/12/11 10:19:48;;;;;;;;;;;;;;;22.87;26.56;96995.75;5043647;28;702;-78
2020/12/11 10:22:13;;;;;;;;;;;;;;;22.83;26.62;96986.63;5044481;28;710;-78
2020/12/11 10:24:39;;;;;;;;;;;;;;;22.15;27.23;96988.97;5026546;28;643;-77
2020/12/11 10:27:04;;;;;;;;;;;;;;;21.73;27.79;96986.75;5043254;28;1969;-78
2020/12/11 10:29:30;;;;;;;;;;;;;;;21.77;27.87;96990.22;5042849;28;1133;-77
2020/12/11 10:31:56;;;;;;;;;;;;;;;21.70;28.36;96987.66;5043627;28;961;-78
2020/12/11 10:34:21;;;;;;;;;;;;;;;21.62;28.69;96992.06;5043173;28;690;-78
2020/12/11 10:36:47;;;;;;;;;;;;;;;22.10;27.86;96992.41;5042898;28;658;-78
2020/12/11 10:39:12;;;;;;;;;;;;;;;22.55;27.05;96987.97;5043262;28;699;-78
2020/12/11 10:41:38;;;;;;;;;;;;;;;22.80;26.79;96992.50;5042915;28;1018;-78
2020/12/11 10:44:03;;;;;;;;;;;;;;;22.88;26.62;96985.22;5042351;28;858;-78
2020/12/11 10:46:29;;;;;;;;;;;;;;;22.29;27.53;96994.00;5042927;28;1973;-78
2020/12/11 10:48:54;;;;;;;;;;;;;;;21.45;28.75;96994.41;5042957;28;592;-78
2020/12/11 10:51:20;;;;;;;;;;;;;;;21.83;28.76;96988.31;5043907;28;686;-78
2020/12/11 10:53:48;;;;;;;;;;;;;;;21.53;29.25;96992.84;5041439;28;775;-76
2020/12/11 10:56:13;;;;;;;;;;;;;;;21.91;28.95;96985.16;5042521;28;872;-78
2020/12/11 10:58:39;;;;;;;;;;;;;;;22.39;28.15;96985.50;5042411;28;942;-78
2020/12/11 11:01:05;;;;;;;;;;;;;;;22.63;27.50;96978.66;5042526;28;924;-78
2020/12/11 11:03:31;;;;;;;;;;;;;;;22.38;27.64;96975.41;5042567;28;674;-78
2020/12/11 11:06:00;;;;;;;;;;;;;;;21.98;28.59;96976.38;5043621;28;1898;-78
2020/12/11 11:08:34;;;;;;;;;;;;;;;21.73;28.86;96975.41;5041842;28;656;-79
2020/12/11 11:11:00;;;;;;;;;;;;;;;21.66;29.09;96978.56;5025946;28;903;-79
2020/12/11 11:13:39;;;;;;;;;;;;;;;22.45;27.83;96989.25;5042065;28;948;-78
2020/12/11 11:16:05;;;;;;;;;;;;;;;22.48;27.75;96979.78;5041375;28;1134;-79
2020/12/11 11:18:42;;;;;;;;;;;;;;;22.67;27.41;96981.31;5033192;28;1190;-78
2020/12/11 11:23:58;;;;;;;;;;;;;;;21.76;28.57;96980.16;5005691;28;1168;-77
2020/12/11 11:28:55;;;;;;;;;;;;;;;22.02;28.95;96985.47;5021439;28;1137;-78
2020/12/11 11:31:20;;;;;;;;;;;;;;;22.33;28.28;96993.84;5022218;28;831;-78
2020/12/11 11:33:46;;;;;;;;;;;;;;;22.61;27.56;96986.06;5022413;28;726;-78
2020/12/11 11:36:11;;;;;;;;;;;;;;;22.77;27.21;96977.19;5023122;28;623;-78
2020/12/11 11:38:37;;;;;;;;;;;;;;;22.10;28.34;96969.75;5021403;28;654;-78
2020/12/11 11:41:02;;;;;;;;;;;;;;;21.74;28.82;96982.66;5022667;28;969;-78
2020/12/11 11:46:12;;;;;;;;;;;;;;;21.53;29.34;96983.56;5022679;28;1898;-78
2020/12/11 11:48:40;;;;;;;;;;;;;;;22.03;28.68;96987.06;5024641;28;1119;-78
2020/12/11 11:51:27;;;;;;;;;;;;;;;22.58;27.70;96981.34;5030967;28;1186;-78
2020/12/11 11:53:52;;;;;;;;;;;;;;;22.68;27.22;96985.72;5030260;28;1112;-78
2020/12/11 11:56:21;;;;;;;;;;;;;;;22.73;27.07;96987.91;5012567;28;1156;-78
2020/12/11 11:58:48;;;;;;;;;;;;;;;22.08;28.07;96984.41;5028017;28;1203;-78
2020/12/11 12:01:14;;;;;;;;;;;;;;;21.75;28.53;96978.53;5031569;28;1186;-78
2020/12/11 12:03:39;;;;;;;;;;;;;;;21.28;29.33;96985.34;5032253;28;1233;-78
2020/12/11 12:06:06;;;;;;;;;;;;;;;21.92;28.43;96981.88;5033141;28;1902;-78
2020/12/11 12:08:31;;;;;;;;;;;;;;;22.31;27.90;96985.81;5029258;28;1199;-78
2020/12/11 12:10:56;;;;;;;;;;;;;;;22.68;27.07;96974.38;5026611;28;1028;-78
2020/12/11 12:13:22;;;;;;;;;;;;;;;22.78;27.05;96977.97;5027137;28;1263;-78
2020/12/11 12:15:48;;;;;;;;;;;;;;;22.15;28.01;96982.53;5029914;28;1025;-78
2020/12/11 12:18:15;;;;;;;;;;;;;;;21.87;28.25;96988.19;5028031;28;1171;-78
2020/12/11 12:31:17;;;;;;;;;;;;;;;22.59;27.44;96982.94;5027455;28;1110;-78
2020/12/11 12:34:48;;;;;;;;;;;;;;;22.54;27.20;96986.41;5009949;28;1101;-78
2020/12/11 12:39:34;;;;;;;;;;;;;;;21.63;28.62;96999.31;5031833;28;1091;-78
2020/12/11 12:44:44;;;;;;;;;;;;;;;21.65;28.65;97013.78;5032027;28;1076;-78
2020/12/11 12:47:10;;;;;;;;;;;;;;;21.56;28.76;97022.25;5032556;28;1918;-78
2020/12/11 12:49:35;;;;;;;;;;;;;;;22.04;28.30;97016.97;5029105;28;1183;-78
2020/12/11 12:52:01;;;;;;;;;;;;;;;22.29;27.55;97008.19;5030562;28;1257;-78
2020/12/11 12:54:26;;;;;;;;;;;;;;;22.49;27.22;97021.84;5031646;28;1272;-78
2020/12/11 12:56:55;;;;;;;;;;;;;;;22.69;27.21;97021.34;5031603;28;1277;-78
2020/12/11 12:59:43;;;;;;;;;;;;;;;22.71;27.05;97024.47;5032096;28;1155;-78
2020/12/11 13:07:18;;;;;;;;;;;;;;;21.57;28.69;97033.13;5027937;28;1959;-78
2020/12/11 13:09:43;;;;;;;;;;;;;;;21.65;28.78;97030.75;5029396;28;1237;-78
2020/12/11 13:12:08;;;;;;;;;;;;;;;22.27;27.50;97030.50;5028966;28;1174;-78
2020/12/11 13:14:34;;;;;;;;;;;;;;;22.40;27.44;97033.19;5031129;28;1202;-78
2020/12/11 13:17:03;;;;;;;;;;;;;;;22.72;26.98;97033.78;5031821;28;1112;-78
2020/12/11 13:19:30;;;;;;;;;;;;;;;22.60;26.65;97033.50;5028307;28;1261;-79
2020/12/11 13:27:17;;;;;;;;;;;;;;;21.83;28.05;97036.47;5030324;28;1902;-78
2020/12/11 13:29:42;;;;;;;;;;;;;;;21.58;28.61;97031.06;5028347;28;1112;-78
2020/12/11 13:32:08;;;;;;;;;;;;;;;22.35;27.66;97036.66;5028741;28;1162;-78
2020/12/11 13:34:33;;;;;;;;;;;;;;;22.86;26.46;97048.09;5031454;28;981;-78
2020/12/11 13:36:59;;;;;;;;;;;;;;;22.72;26.54;97054.41;5030609;28;1231;-78
2020/12/11 13:39:24;;;;;;;;;;;;;;;21.66;28.05;97063.50;5029608;28;1217;-78
2020/12/11 13:41:50;;;;;;;;;;;;;;;20.96;29.47;97065.06;5031498;28;1111;-79
2020/12/11 13:44:15;;;;;;;;;;;;;;;21.64;28.19;97057.50;5028983;28;1234;-79
2020/12/11 13:46:42;;;;;;;;;;;;;;;21.93;28.00;97056.31;5036345;28;1918;-78
2020/12/11 13:49:08;;;;;;;;;;;;;;;22.25;27.60;97050.06;5033101;28;1194;-78
2020/12/11 13:51:33;;;;;;;;;;;;;;;22.53;26.93;97052.84;5035282;28;1257;-79
2020/12/11 13:53:59;;;;;;;;;;;;;;;22.58;27.03;97053.00;5015062;28;1223;-78
2020/12/11 13:56:24;;;;;;;;;;;;;;;22.06;27.48;97065.44;5032293;28;1092;-78
2020/12/11 13:58:49;;;;;;;;;;;;;;;21.58;28.47;97070.69;5034344;28;1289;-78